Time;durP1;ratioP1;P1;durP2;ratioP2;P2;SDS_P1;SDS_P2;PMS_P1;PMS_P2;Temp;Humidity;BMP_temperature;BMP_pressure;BME280_temperature;BME280_humidity;BME280_pressure;Samples;Min_cycle;Max_cycle;Signal;HPM_P1;HPM_P2
2022/01/02 00:01:02;;;;;;;13.43;7.28;;;;;;;;;;5060614;28;20040;-89
2022/01/02 00:03:34;;;;;;;15.05;7.68;;;;;;;;;;5052564;28;20455;-87
2022/01/02 00:06:02;;;;;;;15.70;7.68;;;;;;;;;;5042726;28;20492;-90
2022/01/02 00:08:31;;;;;;;13.05;7.40;;;;;;;;;;5058346;28;20044;-86
2022/01/02 00:10:58;;;;;;;12.38;7.53;;;;;;;;;;5054851;28;20044;-89
2022/01/02 00:13:31;;;;;;;14.25;7.68;;;;;;;;;;5032137;28;20048;-88
2022/01/02 00:16:03;;;;;;;13.18;7.45;;;;;;;;;;5053505;28;20490;-89
2022/01/02 00:18:31;;;;;;;14.35;8.60;;;;;;;;;;5040769;28;20076;-89
2022/01/02 00:21:00;;;;;;;14.15;8.65;;;;;;;;;;5032007;28;20094;-89
2022/01/02 00:23:31;;;;;;;14.70;8.45;;;;;;;;;;5049756;28;20085;-91
2022/01/02 00:26:03;;;;;;;18.42;9.40;;;;;;;;;;5049814;28;20426;-89
2022/01/02 00:28:29;;;;;;;17.77;9.52;;;;;;;;;;5037914;28;20119;-91
2022/01/02 00:30:56;;;;;;;18.67;9.68;;;;;;;;;;5040849;28;20045;-90
2022/01/02 00:33:22;;;;;;;16.35;9.57;;;;;;;;;;5042986;28;20044;-90
2022/01/02 00:35:48;;;;;;;15.10;8.95;;;;;;;;;;5042496;28;20487;-91
2022/01/02 00:38:22;;;;;;;18.15;9.55;;;;;;;;;;5048151;28;20124;-90
2022/01/02 00:40:49;;;;;;;18.70;10.15;;;;;;;;;;5055821;28;20047;-90
2022/01/02 00:43:21;;;;;;;17.38;9.70;;;;;;;;;;5059339;28;20052;-88
2022/01/02 00:45:49;;;;;;;16.25;10.05;;;;;;;;;;5042691;28;20113;-88
2022/01/02 00:48:24;;;;;;;19.27;10.68;;;;;;;;;;5063316;28;20118;-87
2022/01/02 00:50:51;;;;;;;19.52;10.65;;;;;;;;;;5048478;28;20083;-89
2022/01/02 00:53:17;;;;;;;20.73;10.48;;;;;;;;;;5037521;28;20051;-87
2022/01/02 00:55:46;;;;;;;17.42;9.68;;;;;;;;;;5056320;28;20130;-88
2022/01/02 00:58:17;;;;;;;16.33;9.85;;;;;;;;;;5045050;28;20047;-90
2022/01/02 01:00:48;;;;;;;16.08;9.45;;;;;;;;;;5050769;28;20054;-88
2022/01/02 01:03:19;;;;;;;17.50;9.65;;;;;;;;;;5038412;28;20392;-88
2022/01/02 01:05:46;;;;;;;17.48;9.98;;;;;;;;;;5047599;28;20039;-88
2022/01/02 01:08:13;;;;;;;16.70;9.48;;;;;;;;;;5032155;28;20045;-88
2022/01/02 01:10:42;;;;;;;19.63;10.10;;;;;;;;;;5048010;28;20075;-87
2022/01/02 01:13:18;;;;;;;20.13;10.73;;;;;;;;;;5054450;28;20064;-87
2022/01/02 01:15:44;;;;;;;16.60;10.10;;;;;;;;;;5046303;28;20037;-87
2022/01/02 01:18:10;;;;;;;20.27;10.57;;;;;;;;;;5032052;28;20049;-87
2022/01/02 01:20:40;;;;;;;19.23;10.00;;;;;;;;;;5038616;28;20076;-88
2022/01/02 01:23:07;;;;;;;15.88;9.93;;;;;;;;;;5057185;28;20389;-88
2022/01/02 01:25:35;;;;;;;18.42;10.77;;;;;;;;;;5073336;28;20547;-88
2022/01/02 01:28:02;;;;;;;17.95;10.52;;;;;;;;;;5046788;28;20033;-86
2022/01/02 01:30:29;;;;;;;19.08;10.57;;;;;;;;;;5055784;28;20119;-90
2022/01/02 01:32:55;;;;;;;17.42;10.05;;;;;;;;;;5061507;28;20040;-87
2022/01/02 01:35:22;;;;;;;19.80;11.02;;;;;;;;;;5035648;28;20044;-89
2022/01/02 01:37:48;;;;;;;20.50;11.38;;;;;;;;;;5058721;28;20047;-90
2022/01/02 01:40:15;;;;;;;20.45;11.50;;;;;;;;;;5045631;28;20503;-90
2022/01/02 01:42:44;;;;;;;18.85;11.30;;;;;;;;;;5071697;28;20043;-89
2022/01/02 01:47:52;;;;;;;17.58;10.93;;;;;;;;;;5066410;28;20040;-88
2022/01/02 01:50:19;;;;;;;22.45;10.73;;;;;;;;;;5057204;28;20045;-89
2022/01/02 01:52:45;;;;;;;23.33;10.75;;;;;;;;;;5043418;28;20118;-90
2022/01/02 01:55:12;;;;;;;23.67;11.95;;;;;;;;;;5041971;28;20041;-89
2022/01/02 01:57:39;;;;;;;21.92;11.73;;;;;;;;;;5067624;28;20037;-87
2022/01/02 02:00:07;;;;;;;20.75;12.52;;;;;;;;;;5039423;28;20044;-88
2022/01/02 02:02:34;;;;;;;18.95;12.23;;;;;;;;;;5052387;28;20075;-89
2022/01/02 02:05:00;;;;;;;21.25;12.25;;;;;;;;;;5050938;28;20046;-87
2022/01/02 02:07:30;;;;;;;19.90;11.82;;;;;;;;;;5040964;28;20052;-90
2022/01/02 02:12:23;;;;;;;22.27;12.35;;;;;;;;;;5061111;28;20045;-90
2022/01/02 02:14:49;;;;;;;21.58;12.35;;;;;;;;;;5040754;28;20087;-89
2022/01/02 02:17:16;;;;;;;22.05;12.85;;;;;;;;;;5040897;28;20048;-90
2022/01/02 02:19:42;;;;;;;19.50;12.93;;;;;;;;;;5044839;28;20522;-88
2022/01/02 02:22:08;;;;;;;22.15;12.82;;;;;;;;;;5059688;28;20044;-90
2022/01/02 02:24:34;;;;;;;21.70;13.38;;;;;;;;;;5041120;28;20106;-88
2022/01/02 02:27:00;;;;;;;24.25;13.07;;;;;;;;;;5040893;28;20365;-89
2022/01/02 02:29:27;;;;;;;22.17;11.88;;;;;;;;;;5044230;28;20170;-88
2022/01/02 02:31:54;;;;;;;23.15;12.25;;;;;;;;;;5070917;28;20041;-89
2022/01/02 02:34:21;;;;;;;22.83;12.85;;;;;;;;;;5042228;28;20045;-89
2022/01/02 02:36:47;;;;;;;22.08;13.15;;;;;;;;;;5034045;28;20294;-90
2022/01/02 02:39:13;;;;;;;22.58;13.15;;;;;;;;;;5041971;28;20052;-89
2022/01/02 02:41:42;;;;;;;22.73;13.50;;;;;;;;;;5043622;28;20041;-90
2022/01/02 02:44:19;;;;;;;21.38;12.32;;;;;;;;;;5059692;28;20417;-89
2022/01/02 02:49:30;;;;;;;23.00;12.93;;;;;;;;;;5057170;28;20094;-89
2022/01/02 02:52:09;;;;;;;21.90;12.85;;;;;;;;;;5051325;28;20037;-89
2022/01/02 02:54:35;;;;;;;22.45;12.40;;;;;;;;;;5034292;28;20041;-91
2022/01/02 02:57:10;;;;;;;23.85;13.25;;;;;;;;;;5060264;28;20111;-90
2022/01/02 02:59:37;;;;;;;21.88;13.13;;;;;;;;;;5061960;28;20053;-87
2022/01/02 03:02:03;;;;;;;26.05;14.23;;;;;;;;;;5063657;28;20055;-88
2022/01/02 03:04:29;;;;;;;25.00;13.27;;;;;;;;;;5053909;28;20056;-88
2022/01/02 03:06:56;;;;;;;28.98;13.93;;;;;;;;;;5048856;28;20210;-88
2022/01/02 03:09:48;;;;;;;25.73;14.32;;;;;;;;;;5034946;28;20076;-87
2022/01/02 03:12:10;;;;;;;24.98;13.45;;;;;;;;;;5062826;28;20044;-87
2022/01/02 03:14:36;;;;;;;28.52;15.02;;;;;;;;;;5043515;28;20091;-87
2022/01/02 03:17:03;;;;;;;23.60;13.95;;;;;;;;;;5049519;28;20049;-87
2022/01/02 03:19:31;;;;;;;29.20;14.32;;;;;;;;;;5060339;28;20084;-87
2022/01/02 03:21:58;;;;;;;29.15;14.80;;;;;;;;;;5038324;28;20449;-87
2022/01/02 03:24:24;;;;;;;31.48;15.18;;;;;;;;;;5058325;28;20045;-86
2022/01/02 03:26:50;;;;;;;31.90;14.65;;;;;;;;;;5046241;28;20040;-86
2022/01/02 03:29:16;;;;;;;27.45;14.32;;;;;;;;;;5039193;28;20053;-86
2022/01/02 03:31:43;;;;;;;29.42;14.02;;;;;;;;;;5039475;28;20033;-88
2022/01/02 03:34:09;;;;;;;25.80;14.73;;;;;;;;;;5057892;28;20400;-86
2022/01/02 03:36:35;;;;;;;26.17;13.82;;;;;;;;;;5059256;28;20403;-85
2022/01/02 03:39:02;;;;;;;25.10;13.70;;;;;;;;;;5039857;28;20110;-85
2022/01/02 03:41:28;;;;;;;25.98;14.45;;;;;;;;;;5032880;28;20408;-85
2022/01/02 03:43:54;;;;;;;28.85;14.45;;;;;;;;;;5039590;28;20049;-86
2022/01/02 03:46:20;;;;;;;28.13;14.45;;;;;;;;;;5058195;28;20124;-85
2022/01/02 03:48:47;;;;;;;24.85;13.98;;;;;;;;;;5059962;28;20091;-85
2022/01/02 03:51:13;;;;;;;29.73;15.80;;;;;;;;;;5045390;28;20051;-84
2022/01/02 03:53:39;;;;;;;24.50;14.13;;;;;;;;;;5061463;28;20036;-85
2022/01/02 03:56:05;;;;;;;28.55;14.48;;;;;;;;;;5041588;28;20033;-86
2022/01/02 03:58:31;;;;;;;25.90;15.30;;;;;;;;;;5038177;28;20037;-84
2022/01/02 04:00:57;;;;;;;25.30;14.70;;;;;;;;;;5061609;28;20036;-84
2022/01/02 04:03:24;;;;;;;30.80;14.93;;;;;;;;;;5045394;28;20043;-85
2022/01/02 04:05:50;;;;;;;27.63;14.98;;;;;;;;;;5045254;28;20442;-84
2022/01/02 04:08:16;;;;;;;23.98;13.57;;;;;;;;;;5057492;28;20086;-84
2022/01/02 04:10:43;;;;;;;26.67;13.60;;;;;;;;;;5038128;28;20128;-85
2022/01/02 04:13:09;;;;;;;23.70;12.98;;;;;;;;;;5054992;28;20166;-85
2022/01/02 04:15:36;;;;;;;23.45;12.40;;;;;;;;;;5040919;28;20041;-84
2022/01/02 04:18:02;;;;;;;22.83;12.55;;;;;;;;;;5058047;28;20097;-84
2022/01/02 04:20:29;;;;;;;24.88;13.00;;;;;;;;;;5051931;28;20130;-85
2022/01/02 04:22:55;;;;;;;28.20;12.43;;;;;;;;;;5054756;28;20519;-85
2022/01/02 04:25:21;;;;;;;24.52;11.93;;;;;;;;;;5056828;28;20662;-86
2022/01/02 04:27:47;;;;;;;23.13;11.82;;;;;;;;;;5051897;28;20044;-87
2022/01/02 04:30:14;;;;;;;21.85;12.55;;;;;;;;;;5054767;28;20048;-86
2022/01/02 04:32:40;;;;;;;25.75;11.90;;;;;;;;;;5037887;28;20496;-86
2022/01/02 04:35:06;;;;;;;26.20;12.90;;;;;;;;;;5056046;28;20080;-87
2022/01/02 04:37:33;;;;;;;23.70;12.30;;;;;;;;;;5041358;28;20048;-86
2022/01/02 04:39:59;;;;;;;28.92;13.02;;;;;;;;;;5055402;28;20047;-87
2022/01/02 04:42:25;;;;;;;26.48;12.70;;;;;;;;;;5047764;28;20123;-90
2022/01/02 04:44:51;;;;;;;27.65;13.05;;;;;;;;;;5038481;28;20058;-87
2022/01/02 04:47:18;;;;;;;26.00;12.88;;;;;;;;;;5057898;28;20048;-86
2022/01/02 04:49:44;;;;;;;24.90;13.05;;;;;;;;;;5055728;28;20044;-86
2022/01/02 04:52:10;;;;;;;28.25;13.05;;;;;;;;;;5054098;28;20041;-86
2022/01/02 04:54:36;;;;;;;22.70;12.57;;;;;;;;;;5054402;28;20044;-85
2022/01/02 04:57:02;;;;;;;26.23;13.15;;;;;;;;;;5057962;28;20422;-85
2022/01/02 04:59:28;;;;;;;26.00;12.55;;;;;;;;;;5038877;28;20052;-85
2022/01/02 05:01:54;;;;;;;25.73;13.20;;;;;;;;;;5037125;28;20041;-86
2022/01/02 05:04:21;;;;;;;28.95;12.27;;;;;;;;;;5054059;28;20045;-84
2022/01/02 05:06:47;;;;;;;25.17;12.80;;;;;;;;;;5057640;28;20047;-84
2022/01/02 05:09:13;;;;;;;24.38;12.15;;;;;;;;;;5057108;28;20385;-84
2022/01/02 05:11:40;;;;;;;23.30;12.10;;;;;;;;;;5037387;28;20045;-84
2022/01/02 05:14:06;;;;;;;27.42;12.40;;;;;;;;;;5046171;28;20454;-84
2022/01/02 05:16:32;;;;;;;31.23;12.95;;;;;;;;;;5033976;28;20127;-84
2022/01/02 05:18:59;;;;;;;24.20;12.27;;;;;;;;;;5057128;28;20198;-84
2022/01/02 05:21:25;;;;;;;27.48;11.88;;;;;;;;;;5053702;28;20045;-86
2022/01/02 05:23:51;;;;;;;28.40;11.80;;;;;;;;;;5037001;28;20037;-84
2022/01/02 05:26:17;;;;;;;26.73;11.50;;;;;;;;;;5055808;28;20033;-84
2022/01/02 05:28:44;;;;;;;25.05;11.35;;;;;;;;;;5057295;28;20036;-84
2022/01/02 05:31:10;;;;;;;29.33;12.18;;;;;;;;;;5053697;28;20041;-85
2022/01/02 05:33:36;;;;;;;22.75;10.88;;;;;;;;;;5047640;28;20033;-84
2022/01/02 05:36:03;;;;;;;23.05;11.75;;;;;;;;;;5052733;28;20045;-84
2022/01/02 05:38:29;;;;;;;24.10;11.40;;;;;;;;;;5033044;28;20120;-84
2022/01/02 05:40:56;;;;;;;19.65;10.43;;;;;;;;;;5042616;28;20437;-85
2022/01/02 05:43:22;;;;;;;23.30;11.18;;;;;;;;;;5060140;28;20052;-84
2022/01/02 05:45:48;;;;;;;24.60;11.23;;;;;;;;;;5050419;28;20056;-84
2022/01/02 05:48:14;;;;;;;24.98;11.60;;;;;;;;;;5055073;28;20391;-84
2022/01/02 05:50:41;;;;;;;23.75;11.57;;;;;;;;;;5038988;28;20037;-85
2022/01/02 05:53:07;;;;;;;29.38;11.70;;;;;;;;;;5053201;28;20038;-84
2022/01/02 05:55:33;;;;;;;22.73;10.82;;;;;;;;;;5036888;28;20079;-84
2022/01/02 05:57:59;;;;;;;21.88;10.57;;;;;;;;;;5057046;28;20315;-84
2022/01/02 06:00:26;;;;;;;22.33;11.07;;;;;;;;;;5055604;28;20093;-85
2022/01/02 06:02:52;;;;;;;22.83;11.77;;;;;;;;;;5053318;28;20052;-85
2022/01/02 06:05:18;;;;;;;25.88;10.90;;;;;;;;;;5053486;28;20090;-86
2022/01/02 06:07:44;;;;;;;22.45;10.52;;;;;;;;;;5039970;28;20075;-85
2022/01/02 06:10:10;;;;;;;23.73;11.57;;;;;;;;;;5057895;28;20051;-85
2022/01/02 06:12:37;;;;;;;23.77;10.73;;;;;;;;;;5057282;28;20051;-85
2022/01/02 06:15:03;;;;;;;25.98;10.98;;;;;;;;;;5056978;28;20045;-86
2022/01/02 06:17:29;;;;;;;23.50;10.60;;;;;;;;;;5060016;28;20939;-85
2022/01/02 06:19:55;;;;;;;23.73;11.15;;;;;;;;;;5059438;28;20051;-85
2022/01/02 06:22:22;;;;;;;23.40;10.48;;;;;;;;;;5055859;28;20041;-84
2022/01/02 06:24:48;;;;;;;22.77;10.30;;;;;;;;;;5047000;28;20546;-84
2022/01/02 06:27:14;;;;;;;24.23;12.00;;;;;;;;;;5061901;28;20032;-85
2022/01/02 06:29:40;;;;;;;22.50;10.82;;;;;;;;;;5059876;28;20118;-86
2022/01/02 06:32:06;;;;;;;23.55;10.13;;;;;;;;;;5062583;28;20032;-85
2022/01/02 06:34:32;;;;;;;23.98;10.52;;;;;;;;;;5063472;28;20040;-85
2022/01/02 06:36:58;;;;;;;22.00;9.95;;;;;;;;;;5053960;28;20044;-86
2022/01/02 06:39:24;;;;;;;26.38;10.18;;;;;;;;;;5043494;28;20052;-85
2022/01/02 06:41:51;;;;;;;19.58;8.90;;;;;;;;;;5057703;28;20040;-86
2022/01/02 06:44:17;;;;;;;23.80;9.70;;;;;;;;;;5056308;28;20049;-87
2022/01/02 06:46:43;;;;;;;23.17;10.32;;;;;;;;;;5040947;28;20526;-86
2022/01/02 06:49:10;;;;;;;22.15;8.13;;;;;;;;;;5060111;28;20119;-85
2022/01/02 06:51:36;;;;;;;23.20;8.70;;;;;;;;;;5058238;28;20036;-85
2022/01/02 06:54:03;;;;;;;17.55;8.20;;;;;;;;;;5056200;28;20126;-86
2022/01/02 06:56:29;;;;;;;19.08;7.72;;;;;;;;;;5066091;28;20068;-86
2022/01/02 06:58:55;;;;;;;19.25;7.30;;;;;;;;;;5053367;28;20523;-85
2022/01/02 07:01:21;;;;;;;18.40;7.50;;;;;;;;;;5058591;28;20052;-85
2022/01/02 07:03:48;;;;;;;19.02;7.45;;;;;;;;;;5055818;28;20134;-85
2022/01/02 07:06:14;;;;;;;16.58;6.65;;;;;;;;;;5039254;28;20083;-84
2022/01/02 07:08:40;;;;;;;15.48;7.13;;;;;;;;;;5058690;28;20044;-84
2022/01/02 07:11:08;;;;;;;14.20;6.82;;;;;;;;;;5059500;28;20051;-84
2022/01/02 07:13:34;;;;;;;15.13;6.22;;;;;;;;;;5056036;28;20467;-84
2022/01/02 07:16:00;;;;;;;15.20;6.88;;;;;;;;;;5050010;28;20232;-84
2022/01/02 07:18:26;;;;;;;14.20;6.65;;;;;;;;;;5036326;28;20490;-85
2022/01/02 07:20:53;;;;;;;15.13;6.30;;;;;;;;;;5057835;28;20132;-86
2022/01/02 07:23:19;;;;;;;23.98;6.95;;;;;;;;;;5055640;28;20050;-89
2022/01/02 07:25:45;;;;;;;16.05;6.13;;;;;;;;;;5055408;28;20044;-86
2022/01/02 07:28:11;;;;;;;13.27;6.38;;;;;;;;;;5044913;28;20036;-85
2022/01/02 07:30:37;;;;;;;16.05;7.47;;;;;;;;;;5055431;28;20064;-85
2022/01/02 07:33:03;;;;;;;17.67;6.47;;;;;;;;;;5056298;28;20040;-84
2022/01/02 07:35:30;;;;;;;14.07;6.65;;;;;;;;;;5031925;28;20091;-85
2022/01/02 07:37:57;;;;;;;14.77;7.40;;;;;;;;;;5056508;28;20048;-84
2022/01/02 07:40:24;;;;;;;17.83;7.22;;;;;;;;;;5047212;28;20045;-84
2022/01/02 07:42:50;;;;;;;16.20;7.10;;;;;;;;;;5055299;28;20381;-85
2022/01/02 07:45:16;;;;;;;16.45;8.25;;;;;;;;;;5055117;28;20048;-86
2022/01/02 07:47:42;;;;;;;15.63;6.90;;;;;;;;;;5039211;28;20048;-88
2022/01/02 07:50:08;;;;;;;15.65;7.50;;;;;;;;;;5057374;28;20520;-85
2022/01/02 07:52:35;;;;;;;14.55;6.70;;;;;;;;;;5038811;28;20033;-85
2022/01/02 07:55:01;;;;;;;14.85;6.90;;;;;;;;;;5058008;28;20041;-87
2022/01/02 07:57:27;;;;;;;15.13;7.18;;;;;;;;;;5039061;28;20123;-84
2022/01/02 07:59:53;;;;;;;15.60;7.15;;;;;;;;;;5050099;28;20170;-86
2022/01/02 08:02:20;;;;;;;18.77;6.40;;;;;;;;;;5059734;28;20041;-84
2022/01/02 08:04:46;;;;;;;17.17;7.88;;;;;;;;;;5056950;28;20051;-85
2022/01/02 08:07:18;;;;;;;17.50;7.35;;;;;;;;;;5059584;28;20032;-86
2022/01/02 08:09:44;;;;;;;14.55;6.28;;;;;;;;;;5036978;28;20377;-85
2022/01/02 08:12:11;;;;;;;14.23;7.28;;;;;;;;;;5055137;28;20213;-85
2022/01/02 08:14:37;;;;;;;12.38;6.97;;;;;;;;;;5036933;28;20550;-84
2022/01/02 08:17:03;;;;;;;14.23;6.80;;;;;;;;;;5056447;28;20076;-86
2022/01/02 08:19:29;;;;;;;17.30;8.02;;;;;;;;;;5059477;28;20044;-90
2022/01/02 08:21:55;;;;;;;12.77;7.03;;;;;;;;;;5054852;28;20040;-90
2022/01/02 08:24:21;;;;;;;17.83;7.68;;;;;;;;;;5055880;28;20041;-89
2022/01/02 08:26:48;;;;;;;13.05;7.78;;;;;;;;;;5047301;28;20048;-91
2022/01/02 08:29:14;;;;;;;14.05;7.72;;;;;;;;;;5042037;28;20041;-90
2022/01/02 08:31:40;;;;;;;18.58;8.65;;;;;;;;;;5041902;28;20515;-88
2022/01/02 08:34:06;;;;;;;14.85;7.80;;;;;;;;;;5055790;28;20045;-89
2022/01/02 08:36:33;;;;;;;15.77;7.65;;;;;;;;;;5044637;28;20523;-88
2022/01/02 08:38:59;;;;;;;16.38;8.40;;;;;;;;;;5052537;28;20032;-88
2022/01/02 08:41:25;;;;;;;16.30;8.00;;;;;;;;;;5038147;28;20048;-87
2022/01/02 08:43:51;;;;;;;16.23;7.68;;;;;;;;;;5038638;28;20099;-88
2022/01/02 08:46:18;;;;;;;13.35;7.45;;;;;;;;;;5055068;28;20041;-87
2022/01/02 08:48:44;;;;;;;15.00;7.85;;;;;;;;;;5038632;28;20170;-86
2022/01/02 08:51:13;;;;;;;15.50;8.07;;;;;;;;;;5057870;28;20127;-87
2022/01/02 08:53:40;;;;;;;14.35;7.88;;;;;;;;;;5049775;28;20043;-86
2022/01/02 08:56:06;;;;;;;13.18;8.20;;;;;;;;;;5066500;28;20067;-87
2022/01/02 08:58:32;;;;;;;17.58;8.77;;;;;;;;;;5065218;28;20052;-85
2022/01/02 09:01:00;;;;;;;14.70;8.00;;;;;;;;;;5065300;28;20078;-86
2022/01/02 09:03:26;;;;;;;21.58;8.40;;;;;;;;;;5065365;28;20052;-87
2022/01/02 09:05:52;;;;;;;15.20;8.23;;;;;;;;;;5039735;28;20040;-87
2022/01/02 09:08:19;;;;;;;16.33;9.15;;;;;;;;;;5062564;28;20045;-87
2022/01/02 09:10:45;;;;;;;18.13;8.55;;;;;;;;;;5057822;28;20123;-90
2022/01/02 09:13:16;;;;;;;16.15;8.30;;;;;;;;;;5060870;28;20066;-88
2022/01/02 09:15:42;;;;;;;17.27;8.80;;;;;;;;;;5037251;28;20041;-90
2022/01/02 09:18:09;;;;;;;19.95;9.05;;;;;;;;;;5040220;28;20037;-87
2022/01/02 09:20:35;;;;;;;18.00;9.10;;;;;;;;;;5035166;28;20033;-89
2022/01/02 09:23:01;;;;;;;17.92;9.20;;;;;;;;;;5062840;28;20446;-86
2022/01/02 09:25:27;;;;;;;15.77;9.45;;;;;;;;;;5051509;28;20128;-87
2022/01/02 09:27:53;;;;;;;15.30;9.60;;;;;;;;;;5048998;28;20045;-87
2022/01/02 09:30:19;;;;;;;18.13;9.98;;;;;;;;;;5060414;28;20054;-88
2022/01/02 09:32:46;;;;;;;15.00;8.40;;;;;;;;;;5029701;28;20135;-86
2022/01/02 09:35:13;;;;;;;20.63;8.70;;;;;;;;;;5046057;28;20051;-87
2022/01/02 09:37:39;;;;;;;17.02;8.65;;;;;;;;;;5053266;28;20041;-86
2022/01/02 09:40:06;;;;;;;15.18;9.13;;;;;;;;;;5047425;28;20040;-86
2022/01/02 09:42:33;;;;;;;14.18;8.32;;;;;;;;;;5047969;28;20468;-85
2022/01/02 09:44:59;;;;;;;17.75;8.52;;;;;;;;;;5037748;28;20161;-86
2022/01/02 09:47:25;;;;;;;17.27;8.73;;;;;;;;;;5054743;28;20044;-86
2022/01/02 09:49:52;;;;;;;17.70;9.30;;;;;;;;;;5054843;28;20518;-86
2022/01/02 09:52:18;;;;;;;18.50;8.82;;;;;;;;;;5059989;28;20094;-86
2022/01/02 09:54:45;;;;;;;14.73;9.05;;;;;;;;;;5044150;28;20040;-86
2022/01/02 09:57:11;;;;;;;15.23;8.77;;;;;;;;;;5054259;28;20127;-86
2022/01/02 09:59:38;;;;;;;16.63;8.60;;;;;;;;;;5044012;28;20045;-85
2022/01/02 10:02:04;;;;;;;16.35;9.27;;;;;;;;;;5040146;28;20033;-87
2022/01/02 10:04:38;;;;;;;15.25;9.00;;;;;;;;;;5039459;28;20052;-84
2022/01/02 10:07:22;;;;;;;13.82;8.98;;;;;;;;;;5056699;28;20041;-84
2022/01/02 10:09:48;;;;;;;14.93;8.95;;;;;;;;;;5043586;28;20118;-86
2022/01/02 10:12:22;;;;;;;13.38;8.82;;;;;;;;;;5058121;28;20041;-83
2022/01/02 10:15:07;;;;;;;14.40;8.63;;;;;;;;;;5063584;28;20037;-84
2022/01/02 10:17:52;;;;;;;18.50;9.48;;;;;;;;;;5043225;28;20097;-84
2022/01/02 10:20:18;;;;;;;15.02;9.40;;;;;;;;;;5061593;28;20106;-84
2022/01/02 10:23:03;;;;;;;14.60;9.07;;;;;;;;;;5055286;28;20047;-84
2022/01/02 10:25:48;;;;;;;15.05;9.13;;;;;;;;;;5062948;28;20044;-84
2022/01/02 10:28:18;;;;;;;15.13;9.90;;;;;;;;;;5042513;28;20120;-85
2022/01/02 10:30:48;;;;;;;14.60;9.80;;;;;;;;;;5035836;28;20044;-85
2022/01/02 10:33:15;;;;;;;16.75;10.20;;;;;;;;;;5039785;28;20029;-85
2022/01/02 10:35:41;;;;;;;15.95;10.50;;;;;;;;;;5059331;28;20036;-85
2022/01/02 10:38:14;;;;;;;15.35;10.27;;;;;;;;;;5036996;28;20252;-86
2022/01/02 10:40:47;;;;;;;15.40;10.68;;;;;;;;;;5053966;28;20539;-85
2022/01/02 10:43:24;;;;;;;17.35;11.02;;;;;;;;;;5059308;28;20504;-88
2022/01/02 10:45:50;;;;;;;15.13;11.40;;;;;;;;;;5058390;28;20045;-89
2022/01/02 10:48:30;;;;;;;18.48;12.32;;;;;;;;;;5057214;28;20102;-87
2022/01/02 10:50:59;;;;;;;19.85;13.10;;;;;;;;;;5057923;28;20477;-88
2022/01/02 10:53:26;;;;;;;19.75;12.90;;;;;;;;;;5060313;28;20044;-86
2022/01/02 10:55:52;;;;;;;17.75;13.50;;;;;;;;;;5042766;28;20478;-87
2022/01/02 10:58:19;;;;;;;21.60;12.80;;;;;;;;;;5053907;28;20053;-87
2022/01/02 11:00:45;;;;;;;19.40;12.88;;;;;;;;;;5060007;28;20453;-86
2022/01/02 11:03:12;;;;;;;17.48;12.15;;;;;;;;;;5042798;28;20415;-87
2022/01/02 11:05:41;;;;;;;18.00;12.00;;;;;;;;;;5039506;28;20428;-84
2022/01/02 11:08:08;;;;;;;19.10;11.02;;;;;;;;;;5055912;28;20090;-86
2022/01/02 11:10:35;;;;;;;16.20;11.77;;;;;;;;;;5059433;28;20045;-86
2022/01/02 11:13:03;;;;;;;14.90;10.05;;;;;;;;;;5035363;28;20401;-86
2022/01/02 11:15:29;;;;;;;17.42;10.15;;;;;;;;;;5057832;28;20052;-85
2022/01/02 11:17:56;;;;;;;16.77;10.23;;;;;;;;;;5058192;28;20189;-87
2022/01/02 11:20:30;;;;;;;15.65;9.30;;;;;;;;;;5060589;28;20044;-86
2022/01/02 11:23:03;;;;;;;17.17;9.90;;;;;;;;;;5060082;28;20052;-85
2022/01/02 11:25:50;;;;;;;15.35;9.38;;;;;;;;;;5062577;28;20045;-87
2022/01/02 11:28:38;;;;;;;14.18;9.40;;;;;;;;;;5053120;28;20506;-88
2022/01/02 11:31:05;;;;;;;14.75;8.98;;;;;;;;;;5039475;28;20401;-86
2022/01/02 11:33:31;;;;;;;13.52;9.80;;;;;;;;;;5055711;28;20106;-85
2022/01/02 11:35:59;;;;;;;16.88;9.07;;;;;;;;;;5057290;28;20041;-84
2022/01/02 11:38:26;;;;;;;12.85;9.48;;;;;;;;;;5059719;28;21310;-87
2022/01/02 11:40:56;;;;;;;15.65;10.48;;;;;;;;;;5055945;28;20181;-87
2022/01/02 11:43:46;;;;;;;16.88;9.18;;;;;;;;;;5055442;28;20136;-88
2022/01/02 11:46:17;;;;;;;14.63;8.82;;;;;;;;;;5042392;28;20044;-86
2022/01/02 11:49:16;;;;;;;12.27;8.05;;;;;;;;;;5059326;28;20500;-87
2022/01/02 11:51:48;;;;;;;13.98;8.52;;;;;;;;;;5052510;28;20041;-86
2022/01/02 11:57:03;;;;;;;16.23;8.05;;;;;;;;;;5055302;28;20052;-86
2022/01/02 11:59:42;;;;;;;12.63;8.63;;;;;;;;;;5049779;28;20045;-87
2022/01/02 12:02:27;;;;;;;13.90;7.10;;;;;;;;;;5042092;28;20291;-86
2022/01/02 12:05:09;;;;;;;13.75;6.65;;;;;;;;;;5055038;28;20500;-87
2022/01/02 12:07:41;;;;;;;12.98;6.28;;;;;;;;;;5057239;28;20084;-88
2022/01/02 12:10:16;;;;;;;12.43;5.93;;;;;;;;;;5043477;28;20033;-87
2022/01/02 12:13:06;;;;;;;10.48;5.70;;;;;;;;;;5058657;28;20048;-88
2022/01/02 12:15:32;;;;;;;14.50;6.05;;;;;;;;;;5058054;28;20056;-90
2022/01/02 12:18:08;;;;;;;14.23;6.03;;;;;;;;;;5060879;28;20494;-89
2022/01/02 12:20:50;;;;;;;13.80;5.53;;;;;;;;;;5044425;28;20047;-86
2022/01/02 12:23:35;;;;;;;13.88;5.00;;;;;;;;;;5035599;28;20045;-87
2022/01/02 12:26:05;;;;;;;17.38;5.20;;;;;;;;;;5039004;28;20048;-88
2022/01/02 12:28:38;;;;;;;12.25;4.47;;;;;;;;;;5054607;28;20041;-88
2022/01/02 12:31:05;;;;;;;15.23;5.15;;;;;;;;;;5056801;28;20037;-87
2022/01/02 12:33:31;;;;;;;12.45;4.63;;;;;;;;;;5058158;28;20123;-86
2022/01/02 12:35:59;;;;;;;16.73;4.60;;;;;;;;;;5031973;28;20069;-88
2022/01/02 12:38:25;;;;;;;14.70;4.60;;;;;;;;;;5055110;28;20504;-86
2022/01/02 12:40:59;;;;;;;12.57;4.75;;;;;;;;;;5033225;28;20381;-88
2022/01/02 12:43:25;;;;;;;15.48;4.72;;;;;;;;;;5041569;28;20048;-84
2022/01/02 12:46:04;;;;;;;13.75;4.18;;;;;;;;;;5054510;28;20048;-86
2022/01/02 12:48:34;;;;;;;11.73;4.20;;;;;;;;;;5054859;28;20045;-88
2022/01/02 12:51:09;;;;;;;14.63;4.05;;;;;;;;;;5040524;28;20075;-87
2022/01/02 12:53:35;;;;;;;11.38;3.80;;;;;;;;;;5035236;28;20248;-87
2022/01/02 12:56:01;;;;;;;17.23;4.57;;;;;;;;;;5057726;28;20040;-91
2022/01/02 12:58:30;;;;;;;16.23;4.55;;;;;;;;;;5044797;28;20071;-87
2022/01/02 13:01:02;;;;;;;14.73;4.35;;;;;;;;;;5056391;28;20040;-88
2022/01/02 13:03:28;;;;;;;14.70;4.60;;;;;;;;;;5052044;28;20269;-88
2022/01/02 13:05:55;;;;;;;13.52;3.88;;;;;;;;;;5052194;28;20040;-90
2022/01/02 13:08:25;;;;;;;16.85;4.38;;;;;;;;;;5037320;28;20041;-90
2022/01/02 13:10:51;;;;;;;15.23;4.13;;;;;;;;;;5056849;28;20037;-89
2022/01/02 13:13:30;;;;;;;14.80;4.10;;;;;;;;;;5051603;28;20033;-88
2022/01/02 13:16:04;;;;;;;16.33;3.90;;;;;;;;;;5052939;28;20044;-86
2022/01/02 13:18:31;;;;;;;12.60;3.17;;;;;;;;;;5036516;28;20048;-88
2022/01/02 13:20:57;;;;;;;12.43;3.40;;;;;;;;;;5036749;28;20048;-88
2022/01/02 13:23:23;;;;;;;16.30;4.00;;;;;;;;;;5034616;28;20055;-88
2022/01/02 13:25:49;;;;;;;16.13;4.10;;;;;;;;;;5039356;28;20037;-89
2022/01/02 13:28:17;;;;;;;15.43;2.83;;;;;;;;;;5061386;28;20079;-87
2022/01/02 13:30:50;;;;;;;15.32;3.25;;;;;;;;;;5059186;28;20055;-90
2022/01/02 13:33:26;;;;;;;14.90;3.55;;;;;;;;;;5035658;28;20040;-93
2022/01/02 13:35:55;;;;;;;11.75;3.25;;;;;;;;;;5048376;28;20568;-89
2022/01/02 13:38:21;;;;;;;12.70;2.50;;;;;;;;;;5037028;28;20036;-87
2022/01/02 13:40:48;;;;;;;11.15;2.10;;;;;;;;;;5064437;28;20044;-87
2022/01/02 13:43:15;;;;;;;10.88;2.58;;;;;;;;;;5043866;28;20052;-89
2022/01/02 13:45:43;;;;;;;10.38;2.20;;;;;;;;;;5033506;28;20040;-90
2022/01/02 13:48:15;;;;;;;10.50;2.60;;;;;;;;;;5048606;28;20200;-92
2022/01/02 13:50:42;;;;;;;9.85;2.15;;;;;;;;;;5034344;28;20112;-88
2022/01/02 13:53:19;;;;;;;11.65;2.25;;;;;;;;;;5053208;28;20488;-88
2022/01/02 13:55:47;;;;;;;8.13;2.00;;;;;;;;;;5063597;28;20445;-90
2022/01/02 13:58:27;;;;;;;12.05;2.28;;;;;;;;;;5037396;28;20040;-87
2022/01/02 14:00:54;;;;;;;8.93;2.40;;;;;;;;;;5054162;28;20083;-87
2022/01/02 14:03:28;;;;;;;9.73;2.05;;;;;;;;;;5053299;28;20048;-84
2022/01/02 14:05:55;;;;;;;9.80;2.20;;;;;;;;;;5052481;28;20045;-87
2022/01/02 14:08:21;;;;;;;8.45;2.28;;;;;;;;;;5054164;28;20286;-86
2022/01/02 14:11:02;;;;;;;9.32;2.60;;;;;;;;;;5052924;28;20045;-88
2022/01/02 14:13:28;;;;;;;9.32;2.45;;;;;;;;;;5056525;28;20083;-87
2022/01/02 14:16:01;;;;;;;11.15;2.50;;;;;;;;;;5049704;28;20500;-88
2022/01/02 14:18:28;;;;;;;9.63;2.28;;;;;;;;;;5059358;28;20799;-87
2022/01/02 14:21:00;;;;;;;8.27;2.22;;;;;;;;;;5057267;28;20098;-88
2022/01/02 14:23:30;;;;;;;15.52;2.67;;;;;;;;;;5056532;28;20128;-85
2022/01/02 14:25:57;;;;;;;8.68;1.90;;;;;;;;;;5054790;28;20041;-87
2022/01/02 14:28:24;;;;;;;8.60;2.25;;;;;;;;;;5037204;28;20059;-89
2022/01/02 14:30:51;;;;;;;11.77;1.85;;;;;;;;;;5057421;28;20226;-88
2022/01/02 14:33:17;;;;;;;7.63;2.30;;;;;;;;;;5035932;28;20076;-87
2022/01/02 14:35:43;;;;;;;9.73;2.33;;;;;;;;;;5035735;28;20472;-88
2022/01/02 14:38:09;;;;;;;7.50;1.90;;;;;;;;;;5036706;28;20048;-88
2022/01/02 14:40:35;;;;;;;10.35;2.05;;;;;;;;;;5062662;28;20037;-86